createdAt,value
2022-09-01T00:07:56.523Z,35.58
2022-09-01T00:22:58.717Z,34.58
2022-09-01T00:38:01.389Z,34.01
2022-09-01T00:53:03.594Z,32.35
2022-09-01T01:08:05.776Z,31.51
2022-09-01T01:23:08.042Z,30.89
2022-09-01T01:38:10.307Z,30.32
2022-09-01T01:53:12.677Z,30.69
2022-09-01T02:08:14.966Z,31.18
2022-09-01T02:23:17.286Z,29.91
2022-09-01T02:38:19.820Z,30.55
2022-09-01T02:53:22.242Z,30.16
2022-09-01T03:08:24.526Z,29.64
2022-09-01T03:23:26.891Z,29.91
2022-09-01T03:38:29.181Z,28.83
2022-09-01T03:53:31.459Z,28.82
2022-09-01T04:08:33.753Z,27.74
2022-09-01T04:23:36.092Z,27.32
2022-09-01T04:38:38.396Z,26.76
2022-09-01T04:53:40.796Z,26.9
2022-09-01T05:08:43.091Z,26.43
2022-09-01T05:23:48.413Z,25.41
2022-09-01T05:38:50.650Z,25.25
2022-09-01T05:53:52.897Z,25.58
2022-09-01T06:08:55.211Z,25.4
2022-09-01T06:23:57.547Z,24.32
2022-09-01T06:38:59.856Z,24.08
2022-09-01T06:54:02.290Z,23.55
2022-09-01T07:09:22.257Z,23.53
2022-09-01T07:25:11.508Z,23.48
2022-09-01T07:55:47.007Z,23.19
2022-09-01T08:10:49.510Z,22.48
2022-09-01T08:25:51.850Z,23.21
2022-09-01T08:40:56.387Z,22.89
2022-09-01T08:55:59.266Z,22.32
2022-09-01T09:11:01.574Z,22.15
2022-09-01T09:26:03.876Z,21.66
2022-09-01T09:41:18.745Z,20.87
2022-09-01T09:56:23.401Z,20.89
2022-09-01T10:11:28.904Z,21.06
2022-09-01T10:26:33.654Z,20.93
2022-09-01T10:41:35.935Z,20.54
2022-09-01T10:56:43.586Z,20.14
2022-09-01T11:11:46.423Z,19.97
2022-09-01T11:26:48.795Z,20.08
2022-09-01T11:41:55.761Z,20
2022-09-01T11:56:59.975Z,19.95
2022-09-01T12:12:02.263Z,19.71
2022-09-01T12:27:04.719Z,19.18
2022-09-01T12:42:07.013Z,19.02
2022-09-01T12:57:09.312Z,19.26
2022-09-01T13:12:11.693Z,18.95
2022-09-01T13:27:21.985Z,18.81
2022-09-01T13:42:25.481Z,18.93
2022-09-01T13:57:35.745Z,18.79
2022-09-01T14:12:38.951Z,20.35
2022-09-01T14:27:41.242Z,20.19
2022-09-01T14:42:43.489Z,19.16
2022-09-01T14:57:45.784Z,20.68
2022-09-01T15:12:48.050Z,25.2
2022-09-01T15:27:50.313Z,24.44
2022-09-01T15:42:52.558Z,23.1
2022-09-01T15:57:54.878Z,22.33
2022-09-01T16:12:57.609Z,24.41
2022-09-01T16:28:00.102Z,27.14
2022-09-01T16:43:03.627Z,26.49
2022-09-01T16:58:06.680Z,26.08
2022-09-01T17:13:09.444Z,26.95
2022-09-01T17:28:11.701Z,27.74
2022-09-01T17:43:14.007Z,28.4
2022-09-01T17:58:18.494Z,28.74
2022-09-01T18:13:30.756Z,29.61
2022-09-01T18:28:38.829Z,29.68
2022-09-01T18:43:41.333Z,29.77
2022-09-01T18:58:43.648Z,30.34
2022-09-01T19:13:46.082Z,31.07
2022-09-01T19:28:48.355Z,31.51
2022-09-01T19:43:50.598Z,32.64
2022-09-01T19:58:52.894Z,33.51
2022-09-01T20:13:55.182Z,34.92
2022-09-01T20:28:57.505Z,35.76
2022-09-01T20:44:00.305Z,36.65
2022-09-01T20:59:02.647Z,37.47
2022-09-01T21:14:04.964Z,38.24
2022-09-01T21:29:07.347Z,37.72
2022-09-01T21:44:09.645Z,37.68
2022-09-01T21:59:11.931Z,39.01
2022-09-01T22:14:14.421Z,37.94
2022-09-01T22:29:16.728Z,38.13
2022-09-01T22:44:19.019Z,37.85
2022-09-01T22:59:21.273Z,38.42
2022-09-01T23:14:23.596Z,37.87
2022-09-01T23:29:25.868Z,39.08
2022-09-01T23:44:28.379Z,39.42
2022-09-01T23:59:30.656Z,39.45
